createdAt,value
2018-01-19T00:01:26.039Z,91.50
2018-01-19T00:03:52.261Z,91.40
2018-01-19T00:06:18.476Z,91.80
2018-01-19T00:08:46.893Z,92.10
2018-01-19T00:11:13.135Z,92.90
2018-01-19T00:13:39.430Z,91.90
2018-01-19T00:16:05.737Z,91.90
2018-01-19T00:18:31.953Z,91.30
2018-01-19T00:20:58.178Z,90.70
2018-01-19T00:23:24.398Z,91.40
2018-01-19T00:25:50.668Z,91.60
2018-01-19T00:28:16.866Z,91.60
2018-01-19T00:30:43.124Z,91.50
2018-01-19T00:33:09.385Z,90.90
2018-01-19T00:35:35.961Z,91.10
2018-01-19T00:38:02.208Z,91.10
2018-01-19T00:40:28.448Z,92.30
2018-01-19T00:42:54.732Z,91.40
2018-01-19T00:45:20.985Z,92.10
2018-01-19T00:47:47.241Z,92.00
2018-01-19T00:50:13.485Z,92.20
2018-01-19T00:52:40.192Z,91.50
2018-01-19T00:55:06.428Z,91.50
2018-01-19T00:57:32.693Z,92.60
2018-01-19T00:59:59.048Z,93.10
2018-01-19T01:02:25.292Z,91.70
2018-01-19T01:04:51.532Z,92.30
2018-01-19T01:07:17.819Z,92.20
2018-01-19T01:09:44.098Z,92.20
2018-01-19T01:12:10.297Z,92.40
2018-01-19T01:14:36.514Z,92.80
2018-01-19T01:17:02.771Z,93.00
2018-01-19T01:19:28.983Z,93.40
2018-01-19T01:21:55.191Z,92.80
2018-01-19T01:24:21.795Z,91.90
2018-01-19T01:26:48.361Z,91.90
2018-01-19T01:29:14.938Z,91.80
2018-01-19T01:31:41.144Z,91.80
2018-01-19T01:34:07.460Z,91.60
2018-01-19T01:36:33.651Z,92.20
2018-01-19T01:38:59.890Z,92.20
2018-01-19T01:41:26.326Z,91.90
2018-01-19T01:43:52.971Z,92.20
2018-01-19T01:46:19.605Z,93.00
2018-01-19T01:48:58.451Z,92.10
2018-01-19T01:51:24.701Z,92.10
2018-01-19T01:53:50.953Z,92.00
2018-01-19T01:56:17.209Z,91.90
2018-01-19T01:58:43.832Z,91.90
2018-01-19T02:01:10.113Z,91.90
2018-01-19T02:03:36.317Z,92.50
2018-01-19T02:06:02.943Z,92.40
2018-01-19T02:08:29.570Z,92.40
2018-01-19T02:10:55.901Z,92.50
2018-01-19T02:13:22.123Z,92.50
2018-01-19T02:15:48.324Z,92.80
2018-01-19T02:18:14.537Z,93.10
2018-01-19T02:20:40.788Z,93.10
2018-01-19T02:23:07.052Z,93.00
2018-01-19T02:25:33.268Z,93.60
2018-01-19T02:27:59.474Z,93.50
2018-01-19T02:30:25.716Z,93.90
2018-01-19T02:32:51.934Z,93.40
2018-01-19T02:35:18.194Z,94.10
2018-01-19T02:37:44.780Z,94.30
2018-01-19T02:40:11.007Z,94.30
2018-01-19T02:42:37.212Z,93.60
2018-01-19T02:45:03.494Z,93.20
2018-01-19T02:47:29.703Z,94.90
2018-01-19T02:49:55.925Z,93.10
2018-01-19T02:52:22.137Z,93.00
2018-01-19T02:54:48.420Z,93.10
2018-01-19T02:57:14.638Z,92.70
2018-01-19T02:59:40.864Z,92.20
2018-01-19T03:02:07.552Z,92.90
2018-01-19T03:04:33.786Z,93.60
2018-01-19T03:07:00.049Z,93.20
2018-01-19T03:09:26.313Z,94.20
2018-01-19T03:11:52.985Z,92.90
2018-01-19T03:14:19.173Z,92.90
2018-01-19T03:16:45.790Z,92.00
2018-01-19T03:19:12.001Z,92.00
2018-01-19T03:21:38.290Z,91.30
2018-01-19T03:24:04.524Z,90.20
2018-01-19T03:26:30.729Z,89.40
2018-01-19T03:28:57.324Z,90.60
2018-01-19T03:31:23.503Z,90.60
2018-01-19T03:33:49.763Z,91.80
2018-01-19T03:36:15.996Z,90.00
2018-01-19T03:38:42.202Z,90.70
2018-01-19T03:41:08.465Z,89.90
2018-01-19T03:43:34.689Z,90.30
2018-01-19T03:46:00.932Z,90.10
2018-01-19T03:48:27.132Z,91.50
2018-01-19T03:50:53.362Z,90.40
2018-01-19T03:53:19.624Z,91.20
2018-01-19T03:55:46.409Z,90.30
2018-01-19T03:58:12.647Z,89.90
2018-01-19T04:00:38.867Z,89.90
2018-01-19T04:03:05.105Z,90.60
2018-01-19T04:05:31.311Z,89.80
2018-01-19T04:07:57.520Z,89.30
2018-01-19T04:10:23.769Z,89.10
2018-01-19T04:12:50.001Z,90.20
2018-01-19T04:15:16.271Z,89.90
2018-01-19T04:17:42.494Z,90.10
2018-01-19T04:20:08.709Z,90.10
2018-01-19T04:22:34.933Z,90.40
2018-01-19T04:25:01.179Z,90.40
2018-01-19T04:27:27.382Z,89.80
2018-01-19T04:29:53.610Z,89.40
2018-01-19T04:32:19.854Z,89.50
2018-01-19T04:34:47.614Z,89.00
2018-01-19T04:37:13.828Z,87.90
2018-01-19T04:39:40.075Z,89.10
2018-01-19T04:42:06.346Z,89.60
2018-01-19T04:44:32.575Z,90.20
2018-01-19T04:46:58.821Z,89.10
2018-01-19T04:49:25.157Z,89.40
2018-01-19T04:51:51.411Z,89.60
2018-01-19T04:54:17.713Z,88.50
2018-01-19T04:56:43.903Z,89.50
2018-01-19T04:59:10.144Z,88.80
2018-01-19T05:01:36.427Z,88.70
2018-01-19T05:04:02.678Z,89.00
2018-01-19T05:06:28.926Z,88.30
2018-01-19T05:08:55.513Z,89.60
2018-01-19T05:11:21.744Z,89.60
2018-01-19T05:13:48.085Z,89.60
2018-01-19T05:16:14.279Z,87.30
2018-01-19T05:18:40.515Z,88.00
2018-01-19T05:21:06.733Z,86.90
2018-01-19T05:23:32.999Z,89.00
2018-01-19T05:25:59.200Z,86.60
2018-01-19T05:28:25.451Z,87.30
2018-01-19T05:30:51.766Z,86.20
2018-01-19T05:33:18.049Z,85.20
2018-01-19T05:35:44.618Z,85.10
2018-01-19T05:38:10.875Z,85.10
2018-01-19T05:40:37.101Z,86.00
2018-01-19T05:43:03.341Z,84.70
2018-01-19T05:45:29.557Z,87.90
2018-01-19T05:47:55.836Z,84.30
2018-01-19T05:50:22.445Z,86.00
2018-01-19T05:52:48.666Z,86.00
2018-01-19T05:55:14.932Z,85.60
2018-01-19T05:57:41.496Z,84.60
2018-01-19T06:00:07.781Z,84.60
2018-01-19T06:02:34.035Z,86.40
2018-01-19T06:05:01.340Z,85.00
2018-01-19T06:07:28.356Z,85.90
2018-01-19T06:09:54.629Z,84.20
2018-01-19T06:12:20.852Z,84.00
2018-01-19T06:14:47.105Z,83.60
2018-01-19T06:17:13.752Z,83.30
2018-01-19T06:19:39.986Z,83.30
2018-01-19T06:22:06.209Z,84.00
2018-01-19T06:24:32.433Z,83.20
2018-01-19T06:26:58.669Z,83.40
2018-01-19T06:29:24.961Z,84.30
2018-01-19T06:31:51.181Z,84.10
2018-01-19T06:34:17.461Z,83.30
2018-01-19T06:36:43.713Z,84.30
2018-01-19T06:39:09.973Z,83.90
2018-01-19T06:41:36.229Z,84.80
2018-01-19T06:44:02.819Z,84.20
2018-01-19T06:46:29.042Z,84.10
2018-01-19T06:48:55.293Z,83.70
2018-01-19T06:51:22.403Z,84.50
2018-01-19T06:53:48.634Z,83.60
2018-01-19T06:56:14.933Z,84.60
2018-01-19T06:58:41.503Z,82.10
2018-01-19T07:01:07.705Z,82.10
2018-01-19T07:03:34.012Z,82.70
2018-01-19T07:06:00.634Z,82.00
2018-01-19T07:08:26.873Z,82.10
2018-01-19T07:10:53.099Z,81.80
2018-01-19T07:13:20.269Z,83.40
2018-01-19T07:15:46.529Z,82.60
2018-01-19T07:18:12.727Z,81.50
2018-01-19T07:20:39.360Z,82.20
2018-01-19T07:23:05.630Z,82.20
2018-01-19T07:25:31.933Z,80.80
2018-01-19T07:27:59.056Z,81.10
2018-01-19T07:30:25.267Z,81.10
2018-01-19T07:32:51.516Z,81.00
2018-01-19T07:35:17.778Z,82.30
2018-01-19T07:37:43.980Z,80.80
2018-01-19T07:40:10.577Z,81.50
2018-01-19T07:42:36.855Z,81.50
2018-01-19T07:45:03.134Z,83.20
2018-01-19T07:47:29.406Z,81.00
2018-01-19T07:49:56.059Z,80.80
2018-01-19T07:52:22.309Z,80.80
2018-01-19T07:54:48.522Z,81.20
2018-01-19T07:57:14.725Z,81.30
2018-01-19T07:59:41.367Z,82.20
2018-01-19T08:02:07.974Z,82.20
2018-01-19T08:04:34.184Z,82.20
2018-01-19T08:07:00.437Z,81.60
2018-01-19T08:09:27.057Z,79.60
2018-01-19T08:11:53.250Z,79.60
2018-01-19T08:14:19.598Z,82.40
2018-01-19T08:16:45.812Z,81.20
2018-01-19T08:19:12.062Z,79.60
2018-01-19T08:21:38.311Z,80.10
2018-01-19T08:24:04.582Z,80.70
2018-01-19T08:26:30.792Z,79.20
2018-01-19T08:28:57.027Z,79.20
2018-01-19T08:31:23.275Z,80.10
2018-01-19T08:33:49.483Z,79.70
2018-01-19T08:36:15.680Z,78.10
2018-01-19T08:38:41.980Z,78.90
2018-01-19T08:41:08.199Z,79.30
2018-01-19T08:43:34.461Z,77.10
2018-01-19T08:46:00.661Z,77.90
2018-01-19T08:48:26.903Z,76.80
2018-01-19T08:50:53.119Z,78.30
2018-01-19T08:53:19.332Z,78.50
2018-01-19T08:55:45.597Z,77.70
2018-01-19T08:58:12.710Z,77.90
2018-01-19T09:00:38.955Z,76.90
2018-01-19T09:03:05.176Z,78.50
2018-01-19T09:05:31.404Z,78.30
2018-01-19T09:07:57.617Z,77.60
2018-01-19T09:10:23.864Z,75.50
2018-01-19T09:12:50.090Z,76.60
2018-01-19T09:15:16.371Z,75.30
2018-01-19T09:17:42.978Z,75.50
2018-01-19T09:20:09.210Z,75.50
2018-01-19T09:22:35.456Z,76.50
2018-01-19T09:25:01.754Z,75.80
2018-01-19T09:27:28.965Z,74.20
2018-01-19T09:29:55.248Z,75.00
2018-01-19T09:32:22.339Z,73.50
2018-01-19T09:34:49.109Z,73.70
2018-01-19T09:37:15.312Z,74.80
2018-01-19T09:39:41.565Z,72.40
2018-01-19T09:42:08.361Z,72.60
2018-01-19T09:44:36.567Z,71.60
2018-01-19T09:47:05.010Z,73.10
2018-01-19T09:49:31.601Z,72.70
2018-01-19T09:51:57.829Z,72.70
2018-01-19T09:54:24.121Z,73.30
2018-01-19T09:56:50.361Z,74.60
2018-01-19T09:59:16.607Z,75.00
2018-01-19T10:01:42.860Z,73.30
2018-01-19T10:04:09.106Z,71.60
2018-01-19T10:06:35.322Z,73.20
2018-01-19T10:09:01.560Z,73.40
2018-01-19T10:11:27.765Z,73.10
2018-01-19T10:13:54.008Z,70.50
2018-01-19T10:16:20.248Z,71.40
2018-01-19T10:18:46.528Z,69.60
2018-01-19T10:21:12.761Z,68.20
2018-01-19T10:23:39.017Z,67.70
2018-01-19T10:26:05.344Z,66.70
2018-01-19T10:28:31.581Z,64.80
2018-01-19T10:30:58.731Z,63.60
2018-01-19T10:33:24.948Z,58.10
2018-01-19T10:35:51.212Z,57.90
2018-01-19T10:38:17.845Z,54.30
2018-01-19T10:40:44.085Z,54.30
2018-01-19T10:43:10.736Z,53.90
2018-01-19T10:45:36.988Z,53.90
2018-01-19T10:48:03.229Z,52.60
2018-01-19T10:50:29.540Z,51.40
2018-01-19T10:52:55.772Z,52.20
2018-01-19T10:55:22.061Z,51.00
2018-01-19T10:57:48.660Z,52.30
2018-01-19T11:00:15.004Z,52.30
2018-01-19T11:02:41.236Z,53.70
2018-01-19T11:05:07.467Z,55.80
2018-01-19T11:07:33.727Z,56.80
2018-01-19T11:09:59.929Z,58.90
2018-01-19T11:12:26.167Z,59.30
2018-01-19T11:14:59.780Z,60.50
2018-01-19T11:17:26.053Z,60.60
2018-01-19T11:19:52.332Z,60.40
2018-01-19T11:22:18.915Z,60.10
2018-01-19T11:24:45.136Z,60.10
2018-01-19T11:27:11.330Z,60.20
2018-01-19T11:29:37.951Z,58.70
2018-01-19T11:32:04.528Z,56.50
2018-01-19T11:34:30.771Z,56.50
2018-01-19T11:36:57.010Z,53.80
2018-01-19T11:39:23.254Z,50.30
2018-01-19T11:41:49.472Z,47.90
2018-01-19T11:44:15.709Z,45.10
2018-01-19T11:46:41.935Z,47.20
2018-01-19T11:49:08.145Z,50.00
2018-01-19T11:51:34.373Z,51.90
2018-01-19T11:54:00.592Z,53.40
2018-01-19T11:56:26.852Z,55.40
2018-01-19T11:58:53.072Z,58.10
2018-01-19T12:01:19.281Z,60.30
2018-01-19T12:03:45.540Z,61.20
2018-01-19T12:06:11.750Z,61.60
2018-01-19T12:08:38.023Z,64.20
2018-01-19T12:11:04.264Z,62.60
2018-01-19T12:13:30.480Z,62.90
2018-01-19T12:15:57.150Z,63.40
2018-01-19T12:18:23.370Z,63.40
2018-01-19T12:20:49.653Z,63.90
2018-01-19T12:23:16.253Z,65.50
2018-01-19T12:25:42.523Z,65.50
2018-01-19T12:28:09.145Z,65.90
2018-01-19T12:30:35.361Z,65.90
2018-01-19T12:33:01.665Z,64.70
2018-01-19T12:35:27.907Z,66.60
2018-01-19T12:37:54.237Z,64.80
2018-01-19T12:40:21.328Z,67.20
2018-01-19T12:42:48.570Z,68.20
2018-01-19T12:45:15.203Z,67.20
2018-01-19T12:47:41.436Z,67.20
2018-01-19T12:50:07.697Z,68.20
2018-01-19T12:52:33.934Z,68.70
2018-01-19T12:55:00.207Z,67.10
2018-01-19T12:57:26.511Z,68.60
2018-01-19T12:59:52.802Z,69.80
2018-01-19T13:02:19.392Z,69.30
2018-01-19T13:04:45.798Z,69.30
2018-01-19T13:07:12.156Z,69.80
2018-01-19T13:09:38.445Z,69.60
2018-01-19T13:12:04.762Z,67.80
2018-01-19T13:14:31.050Z,67.90
2018-01-19T13:16:57.302Z,69.60
2018-01-19T13:19:23.597Z,68.40
2018-01-19T13:21:49.904Z,69.00
2018-01-19T13:24:16.194Z,70.20
2018-01-19T13:26:42.882Z,68.80
2018-01-19T13:29:09.166Z,68.80
2018-01-19T13:31:35.855Z,69.70
2018-01-19T13:34:02.119Z,69.70
2018-01-19T13:36:28.383Z,72.80
2018-01-19T13:39:02.825Z,73.00
2018-01-19T13:41:42.429Z,74.40
2018-01-19T13:44:09.666Z,76.50
2018-01-19T13:46:37.258Z,75.80
2018-01-19T13:49:03.733Z,75.80
2018-01-19T13:51:30.010Z,73.50
2018-01-19T13:53:56.290Z,72.90
2018-01-19T13:56:22.678Z,72.70
2018-01-19T13:58:49.009Z,70.80
2018-01-19T14:01:15.326Z,71.10
2018-01-19T14:03:42.014Z,69.80
2018-01-19T14:06:08.474Z,69.80
2018-01-19T14:08:34.755Z,69.60
2018-01-19T14:11:01.021Z,68.90
2018-01-19T14:13:27.332Z,67.00
2018-01-19T14:15:53.658Z,68.00
2018-01-19T14:18:19.941Z,68.50
2018-01-19T14:20:46.623Z,66.50
2018-01-19T14:23:12.909Z,66.50
2018-01-19T14:25:39.189Z,67.20
2018-01-19T14:28:05.513Z,69.40
2018-01-19T14:30:31.911Z,69.10
2018-01-19T14:32:58.604Z,70.90
2018-01-19T14:35:24.911Z,70.90
2018-01-19T14:37:51.207Z,70.80
2018-01-19T14:40:17.534Z,69.90
2018-01-19T14:42:44.176Z,70.40
2018-01-19T14:45:10.518Z,70.10
2018-01-19T14:47:36.757Z,72.50
2018-01-19T14:50:03.125Z,75.40
2018-01-19T14:52:29.420Z,76.10
2018-01-19T14:55:02.874Z,77.40
2018-01-19T14:57:29.230Z,78.00
2018-01-19T14:59:55.605Z,77.40
2018-01-19T15:02:22.046Z,77.30
2018-01-19T15:04:48.354Z,76.20
2018-01-19T15:07:14.676Z,76.80
2018-01-19T15:09:41.038Z,76.10
2018-01-19T15:12:07.314Z,76.00
2018-01-19T15:14:33.632Z,76.60
2018-01-19T15:17:00.333Z,78.00
2018-01-19T15:19:26.643Z,78.00
2018-01-19T15:21:52.938Z,77.70
2018-01-19T15:24:19.298Z,77.90
2018-01-19T15:26:45.958Z,77.40
2018-01-19T15:29:12.645Z,77.00
2018-01-19T15:31:39.287Z,77.40
2018-01-19T15:34:05.593Z,77.40
2018-01-19T15:36:31.920Z,76.80
2018-01-19T15:38:58.262Z,76.80
2018-01-19T15:41:24.533Z,77.60
2018-01-19T15:43:50.833Z,76.60
2018-01-19T15:46:18.414Z,77.30
2018-01-19T15:48:44.676Z,77.30
2018-01-19T15:51:10.937Z,77.80
2018-01-19T15:53:37.216Z,77.30
2018-01-19T15:56:03.511Z,77.20
2018-01-19T15:58:30.598Z,76.50
2018-01-19T16:00:56.863Z,77.10
2018-01-19T16:03:23.546Z,78.20
2018-01-19T16:05:49.817Z,78.20
2018-01-19T16:08:16.056Z,79.00
2018-01-19T16:10:42.366Z,79.10
2018-01-19T16:13:08.622Z,79.00
2018-01-19T16:15:34.970Z,79.00
2018-01-19T16:18:01.262Z,78.00
2018-01-19T16:20:27.611Z,78.60
2018-01-19T16:22:53.921Z,79.30
2018-01-19T16:25:20.227Z,79.30
2018-01-19T16:27:46.548Z,79.50
2018-01-19T16:30:12.841Z,79.80
2018-01-19T16:32:39.465Z,79.80
2018-01-19T16:35:05.765Z,79.80
2018-01-19T16:37:32.172Z,79.50
2018-01-19T16:39:58.481Z,79.80
2018-01-19T16:42:24.781Z,80.40
2018-01-19T16:44:51.031Z,81.10
2018-01-19T16:47:17.654Z,81.10
2018-01-19T16:49:44.065Z,81.10
2018-01-19T16:52:10.773Z,80.30
2018-01-19T16:54:37.121Z,80.30
2018-01-19T16:57:03.438Z,80.20
2018-01-19T16:59:29.702Z,81.30
2018-01-19T17:01:56.043Z,81.50
2018-01-19T17:04:22.296Z,82.20
2018-01-19T17:06:48.645Z,81.70
2018-01-19T17:09:14.913Z,81.90
2018-01-19T17:11:41.203Z,81.70
2018-01-19T17:14:07.435Z,82.20
2018-01-19T17:16:33.723Z,82.60
2018-01-19T17:18:59.987Z,82.20
2018-01-19T17:21:26.238Z,82.50
2018-01-19T17:23:52.489Z,82.50
2018-01-19T17:26:18.768Z,81.70
2018-01-19T17:28:45.042Z,81.60
2018-01-19T17:31:11.311Z,81.10
2018-01-19T17:33:37.649Z,81.40
2018-01-19T17:36:04.931Z,81.40
2018-01-19T17:38:34.690Z,81.10
2018-01-19T17:41:01.032Z,80.80
2018-01-19T17:43:27.754Z,80.60
2018-01-19T17:45:54.030Z,80.60
2018-01-19T17:48:21.686Z,80.60
2018-01-19T17:50:47.951Z,80.00
2018-01-19T17:53:14.267Z,79.90
2018-01-19T17:55:40.549Z,80.20
2018-01-19T17:58:07.237Z,81.00
2018-01-19T18:00:33.499Z,81.00
2018-01-19T18:02:59.819Z,81.30
2018-01-19T18:05:26.109Z,81.50
2018-01-19T18:07:52.452Z,81.70
2018-01-19T18:10:18.770Z,81.60
2018-01-19T18:12:45.117Z,81.60
2018-01-19T18:15:11.388Z,81.40
2018-01-19T18:17:37.690Z,81.60
2018-01-19T18:20:04.018Z,81.00
2018-01-19T18:22:30.269Z,79.60
2018-01-19T18:24:56.640Z,79.80
2018-01-19T18:27:22.938Z,80.40
2018-01-19T18:29:52.301Z,79.40
2018-01-19T18:32:18.622Z,79.40
2018-01-19T18:34:46.043Z,79.40
2018-01-19T18:37:12.395Z,80.20
2018-01-19T18:39:38.672Z,80.80
2018-01-19T18:42:04.985Z,81.50
2018-01-19T18:44:31.453Z,82.00
2018-01-19T18:46:57.788Z,82.00
2018-01-19T18:49:24.485Z,82.70
2018-01-19T18:51:50.806Z,82.70
2018-01-19T18:54:17.106Z,82.10
2018-01-19T18:56:43.364Z,82.50
2018-01-19T18:59:09.679Z,84.70
2018-01-19T19:01:36.830Z,85.90
2018-01-19T19:04:03.261Z,86.80
2018-01-19T19:06:29.529Z,87.90
2018-01-19T19:08:55.829Z,87.70
2018-01-19T19:11:22.145Z,88.40
2018-01-19T19:13:48.379Z,87.60
2018-01-19T19:16:14.622Z,87.30
2018-01-19T19:18:40.968Z,88.20
2018-01-19T19:21:07.240Z,88.10
2018-01-19T19:23:33.576Z,87.80
2018-01-19T19:25:59.925Z,87.80
2018-01-19T19:28:26.263Z,87.40
2018-01-19T19:30:52.592Z,86.60
2018-01-19T19:33:18.961Z,86.20
2018-01-19T19:35:45.856Z,86.20
2018-01-19T19:38:12.140Z,86.00
2018-01-19T19:40:38.474Z,84.80
2018-01-19T19:43:04.798Z,85.50
2018-01-19T19:45:31.088Z,85.30
2018-01-19T19:47:57.420Z,85.10
2018-01-19T19:50:23.776Z,85.80
2018-01-19T19:52:53.068Z,85.50
2018-01-19T19:55:19.444Z,84.50
2018-01-19T19:57:46.094Z,87.20
2018-01-19T20:00:15.411Z,87.20
2018-01-19T20:02:41.937Z,87.00
2018-01-19T20:05:08.307Z,87.80
2018-01-19T20:07:34.651Z,87.90
2018-01-19T20:10:01.036Z,88.90
2018-01-19T20:12:27.376Z,89.30
2018-01-19T20:14:53.721Z,88.40
2018-01-19T20:17:20.146Z,88.70
2018-01-19T20:19:46.474Z,88.50
2018-01-19T20:22:12.794Z,89.80
2018-01-19T20:24:39.189Z,89.60
2018-01-19T20:27:05.526Z,89.30
2018-01-19T20:29:31.868Z,89.40
2018-01-19T20:31:58.240Z,89.40
2018-01-19T20:34:25.263Z,90.40
2018-01-19T20:36:51.650Z,90.20
2018-01-19T20:39:18.349Z,90.50
2018-01-19T20:41:44.829Z,90.50
2018-01-19T20:44:11.224Z,90.30
2018-01-19T20:46:37.647Z,89.80
2018-01-19T20:49:04.032Z,90.10
2018-01-19T20:51:30.809Z,89.70
2018-01-19T20:53:57.173Z,89.60
2018-01-19T20:56:23.585Z,89.10
2018-01-19T20:58:49.943Z,88.80
2018-01-19T21:01:16.243Z,89.60
2018-01-19T21:03:42.578Z,89.80
2018-01-19T21:06:08.901Z,90.10
2018-01-19T21:08:35.234Z,89.80
2018-01-19T21:11:01.548Z,90.00
2018-01-19T21:13:28.100Z,90.60
2018-01-19T21:15:54.444Z,90.30
2018-01-19T21:18:20.779Z,90.00
2018-01-19T21:20:47.072Z,89.40
2018-01-19T21:23:13.392Z,90.90
2018-01-19T21:25:39.700Z,90.60
2018-01-19T21:28:06.451Z,91.30
2018-01-19T21:30:32.804Z,91.30
2018-01-19T21:32:59.090Z,90.90
2018-01-19T21:35:25.420Z,91.10
2018-01-19T21:37:52.249Z,90.30
2018-01-19T21:40:18.624Z,90.30
2018-01-19T21:42:44.936Z,90.40
2018-01-19T21:45:11.604Z,90.00
2018-01-19T21:47:37.931Z,90.00
2018-01-19T21:50:04.272Z,89.70
2018-01-19T21:52:30.600Z,90.00
2018-01-19T21:54:56.862Z,90.40
2018-01-19T21:57:23.185Z,90.10
2018-01-19T21:59:49.434Z,90.20
2018-01-19T22:02:15.708Z,89.90
2018-01-19T22:04:41.951Z,90.30
2018-01-19T22:07:08.278Z,89.60
2018-01-19T22:09:34.532Z,89.90
2018-01-19T22:12:00.773Z,90.30
2018-01-19T22:14:27.030Z,90.50
2018-01-19T22:16:53.326Z,88.60
2018-01-19T22:19:19.616Z,88.50
2018-01-19T22:21:45.872Z,87.90
2018-01-19T22:24:12.187Z,89.30
2018-01-19T22:26:43.518Z,89.10
2018-01-19T22:29:09.767Z,88.10
2018-01-19T22:31:36.351Z,88.70
2018-01-19T22:34:02.998Z,88.80
2018-01-19T22:36:29.679Z,88.10
2018-01-19T22:38:55.994Z,88.10
2018-01-19T22:41:22.272Z,87.50
2018-01-19T22:43:48.537Z,87.30
2018-01-19T22:46:14.792Z,87.80
2018-01-19T22:48:41.104Z,87.90
2018-01-19T22:51:07.390Z,88.10
2018-01-19T22:53:33.683Z,87.80
2018-01-19T22:55:59.920Z,87.30
2018-01-19T22:58:26.174Z,86.80
2018-01-19T23:00:52.415Z,86.80
2018-01-19T23:03:18.659Z,87.00
2018-01-19T23:05:45.349Z,87.50
2018-01-19T23:08:11.607Z,87.40
2018-01-19T23:10:37.854Z,86.50
2018-01-19T23:13:04.510Z,86.10
2018-01-19T23:15:30.777Z,86.10
2018-01-19T23:17:57.026Z,87.10
2018-01-19T23:20:23.233Z,86.80
2018-01-19T23:22:49.502Z,87.60
2018-01-19T23:25:16.079Z,86.80
2018-01-19T23:27:42.360Z,86.80
2018-01-19T23:30:08.595Z,87.30
2018-01-19T23:32:34.904Z,88.10
2018-01-19T23:35:01.136Z,87.00
2018-01-19T23:37:27.424Z,87.10
2018-01-19T23:39:53.667Z,87.20
2018-01-19T23:42:19.933Z,87.60
2018-01-19T23:44:46.213Z,87.30
2018-01-19T23:47:12.474Z,88.40
2018-01-19T23:49:40.031Z,88.50
2018-01-19T23:52:06.325Z,88.50
2018-01-19T23:54:32.544Z,89.00
2018-01-19T23:56:58.886Z,88.70
2018-01-19T23:59:25.169Z,88.90
